Time;durP1;ratioP1;P1;durP2;ratioP2;P2;SDS_P1;SDS_P2;PMS_P1;PMS_P2;Temp;Humidity;BMP_temperature;BMP_pressure;BME280_temperature;BME280_humidity;BME280_pressure;Samples;Min_cycle;Max_cycle;Signal;HPM_P1;HPM_P2
2022/05/11 05:46:20;;;;;;;;;10.50;9.50;;;;;28.91;33.96;100874.88;3937218;27;46070;-79
2022/05/11 05:56:37;;;;;;;;;;;;;;;;;;;;;
2022/05/11 06:03:19;;;;;;;;;;;;;;;;;;;;;
2022/05/11 06:20:51;;;;;;;;;;;;;;;;;;;;;
2022/05/11 12:27:13;;;;;;;;;;;;;;;;;;;;;
2022/05/11 12:30:32;;;;;;;;;;;;;;;;;;;;;
2022/05/11 12:37:05;;;;;;;;;;;;;;;;;;;;;
2022/05/11 12:40:15;;;;;;;;;;;;;;;;;;;;;
2022/05/11 12:43:53;;;;;;;;;2.25;2.25;;;;;35.26;23.27;100784.66;4784023;29;73413;-77
2022/05/11 12:47:11;;;;;;;;;;;;;;;;;;;;;
2022/05/11 14:05:44;;;;;;;;;;;;;;;;;;;;;
2022/05/11 14:08:40;;;;;;;;;;;;;;;;;;;;;
2022/05/11 16:56:19;;;;;;;;;;;;;;;;;;;;;
2022/05/11 16:59:26;;;;;;;;;;;;;;;;;;;;;
2022/05/11 17:02:17;;;;;;;;;2.25;2.00;;;;;33.47;30.08;100782.25;4877080;29;72837;-76
2022/05/11 17:05:06;;;;;;;;;3.50;3.00;;;;;33.99;29.44;100788.13;4857884;29;45291;-76
2022/05/11 17:29:00;;;;;;;;;;;;;;;;;;;;;
2022/05/11 17:32:24;;;;;;;;;;;;;;;;;;;;;
2022/05/11 17:46:23;;;;;;;;;;;;;;;;;;;;;
2022/05/11 17:49:01;;;;;;;;;;;;;;;;;;;;;
2022/05/11 17:51:38;;;;;;;;;3.00;2.00;;;;;33.48;30.03;100827.72;4871126;29;75088;-77
2022/05/11 17:54:32;;;;;;;;;3.50;2.25;;;;;32.98;30.53;100828.59;4861214;29;45379;-77
2022/05/11 17:57:00;;;;;;;;;3.50;3.00;;;;;33.52;29.83;100839.81;4875663;29;45514;-77
2022/05/11 18:06:05;;;;;;;;;;;;;;;;;;;;;
2022/05/11 18:09:30;;;;;;;;;;;;;;;;;;;;;
2022/05/11 18:43:36;;;;;;;;;4.00;4.00;;;;;32.47;31.53;100883.44;4817945;29;46221;-80
2022/05/11 18:46:31;;;;;;;;;;;;;;;;;;;;;
2022/05/11 18:49:11;;;;;;;;;4.00;3.00;;;;;31.97;32.03;100881.31;4845393;29;69344;-79
2022/05/11 18:52:07;;;;;;;;;;;;;;;;;;;;;
2022/05/11 18:54:38;;;;;;;;;3.25;3.25;;;;;31.70;32.33;100899.28;4839658;29;75713;-79
2022/05/11 18:57:24;;;;;;;;;;;;;;;;;;;;;
2022/05/11 19:00:08;;;;;;;;;2.25;2.25;;;;;31.53;32.60;100901.88;4844840;29;68793;-79
2022/05/11 19:03:13;;;;;;;;;1.00;1.00;;;;;31.07;32.73;100894.44;4827824;29;45423;-79
2022/05/11 19:06:01;;;;;;;;;3.00;3.00;;;;;30.85;33.55;100895.00;4830767;29;47449;-78
2022/05/11 19:08:53;;;;;;;;;4.00;3.00;;;;;31.47;32.21;100894.63;4848658;29;45441;-79
2022/05/11 19:11:33;;;;;;;;;;;;;;;;;;;;;
2022/05/11 19:14:07;;;;;;;;;3.00;1.00;;;;;31.77;31.74;100898.09;4836379;29;71237;-80
2022/05/11 19:16:49;;;;;;;;;;;;;;;;;;;;;
2022/05/11 19:26:20;;;;;;;;;5.25;4.25;;;;;31.38;32.42;100920.63;4789635;29;45420;-79
2022/05/11 19:29:18;;;;;;;;;;;;;;;;;;;;;
2022/05/11 19:32:05;;;;;;;;;;;;;;;;;;;;;
2022/05/11 19:35:26;;;;;;;;;3.50;2.75;;;;;31.08;33.20;100943.34;4844629;29;68911;-78
2022/05/11 19:37:55;;;;;;;;;3.00;1.50;;;;;31.23;32.68;100935.53;4790972;29;45675;-79
2022/05/11 19:40:20;;;;;;;;;2.75;2.75;;;;;31.29;32.91;100938.41;4806757;29;46926;-79
2022/05/11 19:43:00;;;;;;;;;2.00;2.00;;;;;30.95;33.30;100943.53;4830639;29;45425;-78
2022/05/11 19:45:26;;;;;;;;;2.00;2.00;;;;;31.09;33.17;100944.16;4813598;29;45547;-79
2022/05/11 19:47:55;;;;;;;;;4.25;2.50;;;;;31.19;32.55;100941.72;4824856;29;45622;-79
2022/05/11 19:50:34;;;;;;;;;3.75;2.00;;;;;31.10;33.11;100943.94;4834203;29;45548;-79
2022/05/11 19:53:00;;;;;;;;;0.50;0.50;;;;;30.98;32.86;100943.03;4822329;29;45912;-79
2022/05/11 19:55:26;;;;;;;;;3.75;2.00;;;;;30.40;34.03;100970.88;4838246;29;45572;-79
2022/05/11 19:58:14;;;;;;;;;;;;;;;;;;;;;
2022/05/11 20:01:10;;;;;;;;;1.75;1.00;;;;;30.83;32.84;100962.56;4824566;29;75769;-79
2022/05/11 20:03:38;;;;;;;;;2.00;2.00;;;;;31.13;32.85;100965.31;4835574;29;45614;-79
2022/05/11 20:07:10;;;;;;;;;3.00;3.00;;;;;31.48;31.88;100972.72;4805386;29;45419;-79
2022/05/11 20:10:26;;;;;;;;;;;;;;;;;;;;;
2022/05/11 20:38:13;;;;;;;;;;;;;;;;;;;;;
2022/05/11 20:44:26;;;;;;;;;3.75;1.00;;;;;28.95;36.32;101039.28;4656709;30;45434;-79
2022/05/11 20:50:11;;;;;;;;;;;;;;;;;;;;;
2022/05/11 20:53:04;;;;;;;;;;;;;;;;;;;;;
2022/05/11 20:56:06;;;;;;;;;;;;;;;;;;;;;
2022/05/11 21:02:32;;;;;;;;;1.75;1.75;;;;;28.77;37.23;101050.81;4786886;29;45438;-78
2022/05/11 21:06:08;;;;;;;;;;;;;;;;;;;;;
2022/05/11 21:08:53;;;;;;;;;1.50;1.00;;;;;28.61;36.86;101048.56;4820811;29;45556;-79
2022/05/11 21:11:22;;;;;;;;;2.50;1.25;;;;;28.51;36.90;101049.00;4818465;29;45393;-78
2022/05/11 21:13:48;;;;;;;;;2.00;1.00;;;;;28.48;37.53;101054.88;4832727;29;45600;-78
2022/05/11 21:16:24;;;;;;;;;1.00;1.00;;;;;28.21;37.94;101066.84;4836872;29;45570;-78
2022/05/11 21:18:50;;;;;;;;;1.00;1.00;;;;;28.74;37.16;101053.97;4837383;29;45482;-77
2022/05/11 21:21:15;;;;;;;;;1.25;1.00;;;;;28.57;37.89;101069.06;4816666;29;45378;-78
2022/05/11 21:23:41;;;;;;;;;2.50;2.00;;;;;28.65;37.71;101061.53;4835443;29;45294;-77
2022/05/11 21:26:11;;;;;;;;;3.00;2.25;;;;;29.00;36.97;101062.03;4833989;29;47133;-77
2022/05/11 21:28:39;;;;;;;;;3.00;1.50;;;;;28.83;36.94;101060.84;4826379;29;45160;-78
2022/05/11 21:31:05;;;;;;;;;3.00;1.75;;;;;28.65;37.46;101074.28;4813634;29;46073;-77
2022/05/11 21:33:30;;;;;;;;;1.00;1.00;;;;;29.07;36.98;101082.91;4829851;29;45531;-78
2022/05/11 21:35:56;;;;;;;;;1.00;1.00;;;;;29.24;36.09;101081.34;4823220;29;45536;-78
2022/05/11 21:38:21;;;;;;;;;1.00;1.00;;;;;29.73;35.70;101073.31;4827037;29;45424;-78
2022/05/11 21:40:47;;;;;;;;;2.50;1.00;;;;;29.28;36.20;101078.00;4830458;29;45466;-78
2022/05/11 21:43:13;;;;;;;;;1.50;1.00;;;;;30.04;35.37;101058.88;4827555;29;45270;-78
2022/05/11 21:45:44;;;;;;;;;1.00;1.00;;;;;29.77;35.55;101074.53;4829001;29;45413;-78
2022/05/11 21:48:11;;;;;;;;;2.00;1.00;;;;;29.96;35.09;101077.34;4810729;29;45614;-78
2022/05/11 21:50:37;;;;;;;;;2.00;1.00;;;;;30.46;34.51;101080.84;4822774;29;45502;-78
2022/05/11 21:53:05;;;;;;;;;2.00;2.00;;;;;29.42;35.99;101084.22;4803647;29;45765;-78
2022/05/11 21:55:32;;;;;;;;;0.50;0.00;;;;;29.25;36.16;101083.88;4834944;29;48156;-77
2022/05/11 21:58:01;;;;;;;;;3.00;1.50;;;;;28.98;37.18;101085.88;4829705;29;45455;-77
2022/05/11 22:00:27;;;;;;;;;2.25;2.00;;;;;29.07;36.95;101091.06;4829974;29;45443;-78
2022/05/11 22:02:54;;;;;;;;;3.00;2.00;;;;;29.09;36.90;101103.41;4820374;29;45542;-78
2022/05/11 22:05:21;;;;;;;;;2.00;1.50;;;;;29.14;36.41;101108.19;4825198;29;45519;-77
2022/05/11 22:07:46;;;;;;;;;4.00;2.00;;;;;31.48;35.26;101098.31;4827594;29;45502;-78
2022/05/11 22:10:13;;;;;;;;;3.75;2.00;;;;;29.15;36.88;101118.84;4813111;29;45485;-78
2022/05/11 22:12:38;;;;;;;;;2.00;2.00;;;;;28.82;37.21;101129.03;4811452;29;46013;-77
2022/05/11 22:15:04;;;;;;;;;4.00;3.00;;;;;29.00;37.47;101129.19;4828961;29;45756;-78
2022/05/11 22:17:30;;;;;;;;;3.00;3.00;;;;;30.08;35.43;101146.41;4806867;29;45583;-77
2022/05/11 22:19:55;;;;;;;;;3.00;3.00;;;;;29.56;36.73;101142.97;4825471;29;45442;-77
2022/05/11 22:22:21;;;;;;;;;3.25;2.50;;;;;29.42;36.65;101162.28;4827431;29;45728;-77
2022/05/11 22:24:46;;;;;;;;;5.25;2.00;;;;;29.16;37.12;101160.50;4822407;29;47764;-77
2022/05/11 22:27:12;;;;;;;;;2.75;2.00;;;;;29.80;35.14;101154.09;4814568;29;46363;-77
2022/05/11 22:29:37;;;;;;;;;5.00;2.00;;;;;28.72;37.39;101170.22;4812814;29;45320;-77
2022/05/11 22:32:03;;;;;;;;;1.25;1.00;;;;;28.76;37.07;101174.19;4831966;29;45468;-77
2022/05/11 22:34:29;;;;;;;;;3.75;3.75;;;;;28.64;37.38;101181.31;4830198;29;47402;-78
2022/05/11 22:36:55;;;;;;;;;3.50;3.00;;;;;29.04;36.29;101174.75;4818763;29;45397;-77
2022/05/11 22:39:21;;;;;;;;;4.25;1.50;;;;;28.54;37.45;101175.47;4826033;29;45393;-78
2022/05/11 22:41:46;;;;;;;;;4.50;2.50;;;;;28.13;37.98;101181.94;4815788;29;45556;-77
2022/05/11 22:44:11;;;;;;;;;3.00;2.00;;;;;28.26;38.12;101183.84;4829016;29;45339;-78
2022/05/11 22:46:37;;;;;;;;;3.50;3.00;;;;;28.05;38.07;101173.97;4818169;29;46590;-78
2022/05/11 22:49:03;;;;;;;;;2.75;1.00;;;;;28.83;36.37;101185.91;4818881;29;45449;-78
2022/05/11 22:51:30;;;;;;;;;3.75;2.00;;;;;29.13;36.32;101179.97;4826880;29;45419;-78
2022/05/11 22:53:55;;;;;;;;;2.50;0.00;;;;;29.01;36.34;101182.50;4821988;29;46251;-78
2022/05/11 22:56:21;;;;;;;;;2.50;2.00;;;;;28.90;36.67;101192.16;4825534;29;45467;-78
2022/05/11 22:58:47;;;;;;;;;4.75;3.25;;;;;28.84;36.25;101205.78;4823549;29;45407;-78
2022/05/11 23:01:12;;;;;;;;;3.00;1.75;;;;;28.93;36.27;101201.78;4809529;29;45447;-78
2022/05/11 23:03:38;;;;;;;;;2.00;2.00;;;;;28.89;36.48;101201.38;4816626;29;45362;-78
2022/05/11 23:06:04;;;;;;;;;3.25;0.25;;;;;29.06;36.13;101212.63;4826151;29;45501;-78
2022/05/11 23:08:29;;;;;;;;;4.00;2.75;;;;;29.01;36.14;101207.81;4807597;29;45475;-78
2022/05/11 23:10:55;;;;;;;;;2.75;2.00;;;;;29.11;36.19;101212.81;4811619;29;45533;-78
2022/05/11 23:13:20;;;;;;;;;4.75;2.00;;;;;29.17;35.88;101205.69;4823816;29;45543;-78
2022/05/11 23:15:46;;;;;;;;;5.00;3.00;;;;;29.54;34.78;101207.66;4828310;29;45420;-78
2022/05/11 23:18:13;;;;;;;;;4.00;2.75;;;;;29.31;35.54;101208.16;4822948;29;45811;-78
2022/05/11 23:20:41;;;;;;;;;3.00;3.00;;;;;29.48;35.18;101218.59;4828412;29;45401;-79
2022/05/11 23:23:06;;;;;;;;;2.00;2.00;;;;;29.35;35.14;101211.25;4826726;29;46532;-79
2022/05/11 23:25:33;;;;;;;;;3.25;1.75;;;;;29.59;35.44;101199.66;4831500;29;45476;-78
2022/05/11 23:28:00;;;;;;;;;2.50;2.00;;;;;28.66;36.31;101206.41;4831160;29;45375;-78
2022/05/11 23:30:27;;;;;;;;;2.00;2.00;;;;;29.95;34.62;101207.25;4815643;29;45383;-78
2022/05/11 23:32:53;;;;;;;;;2.75;2.75;;;;;30.35;33.66;101201.50;4828864;29;45445;-78
2022/05/11 23:35:20;;;;;;;;;3.00;1.75;;;;;30.09;34.09;101211.56;4829119;29;45236;-78
2022/05/11 23:37:46;;;;;;;;;3.25;2.00;;;;;30.11;34.35;101203.16;4820866;29;46051;-78
2022/05/11 23:40:13;;;;;;;;;3.75;2.00;;;;;30.19;34.07;101215.69;4821163;29;45499;-78
2022/05/11 23:42:39;;;;;;;;;3.00;3.00;;;;;30.12;34.49;101223.91;4820810;29;45448;-78
2022/05/11 23:45:06;;;;;;;;;4.50;2.00;;;;;30.02;33.78;101220.81;4820769;29;45408;-78
2022/05/11 23:47:32;;;;;;;;;3.25;2.25;;;;;29.68;34.81;101224.78;4801886;29;45361;-78
2022/05/11 23:49:58;;;;;;;;;6.25;2.00;;;;;29.43;34.92;101216.50;4825866;29;45415;-78
2022/05/11 23:52:23;;;;;;;;;3.25;2.00;;;;;29.19;35.19;101211.75;4827987;29;46269;-78
2022/05/11 23:54:50;;;;;;;;;3.50;2.00;;;;;29.15;36.07;101224.09;4828111;29;45284;-78
2022/05/11 23:57:16;;;;;;;;;4.50;2.50;;;;;30.61;32.40;101220.38;4818018;29;45468;-78
2022/05/11 23:59:42;;;;;;;;;4.25;3.00;;;;;28.64;36.40;101225.63;4806460;29;46016;-78
